• Join FlightAware (Why Join?)
  • Login
  • US Flag 
Rudolph Flight #1: Arrived! 
10:13AM EST


 

Airport Tracker/Info


-or-


 

Live Flight TrackerFlight Track Log ✈ CPT7773 ✈ 09-Jan-2014 ✈ KCOD - KCPR

Flight Track Log - Related Links

Times and Time Zones

All times are in EST time to prevent confusion due to time zone crossing. See the CPT7773 flight status page for this flight to view local times or setup timezone preferences in your user account.

Time Position Orientation Groundspeed Altitude Reporting Facility
EST Latitude Longitude Course Direction KTS MPH feet Rate Location/Type
07:55PM 44.4769 -108.9658 131° Southeast 122 140 7,400  Level Salt Lake Center
07:56PM 44.4511 -108.9236 131° Southeast 131 151 8,200 780 Climbing Salt Lake Center
07:57PM 44.4231 -108.8803 132° Southeast 140 161 9,000 840 Climbing Salt Lake Center
07:58PM 44.3978 -108.8383 130° Southeast 143 165 10,000 900 Climbing Salt Lake Center
07:59PM 44.3725 -108.7975 131° Southeast 142 163 10,900 780 Climbing Salt Lake Center
08:00PM 44.3483 -108.7553 129° Southeast 141 162 11,700 720 Climbing Salt Lake Center
08:01PM 44.3186 -108.7056 130° Southeast 140 161 12,400 600 Climbing Salt Lake Center
08:02PM 44.2933 -108.6653 131° Southeast 139 160 13,000 240 Climbing Salt Lake Center
08:03PM 44.2644 -108.6211 132° Southeast 144 166 13,000  Level Salt Lake Center
08:04PM 44.2336 -108.5700 130° Southeast 155 178 13,000  Level Salt Lake Center
08:05PM 44.2044 -108.5197 129° Southeast 163 188 13,000  Level Salt Lake Center
08:06PM 44.1747 -108.4714 131° Southeast 165 190 13,000  Level Salt Lake Center
08:07PM 44.1386 -108.4114 130° Southeast 167 192 13,000  Level Salt Lake Center
08:08PM 44.1089 -108.3636 131° Southeast 166 191 13,000  Level Salt Lake Center
08:09PM 44.0797 -108.3133 129° Southeast 166 191 13,000  Level Salt Lake Center
08:10PM 44.0492 -108.2644 131° Southeast 167 192 13,000  Level Salt Lake Center
08:11PM 44.0181 -108.2153 131° Southeast 169 194 13,000  Level Salt Lake Center
08:12PM 43.9883 -108.1650 129° Southeast 169 194 13,000  Level Salt Lake Center
08:14PM 43.9511 -108.1072 132° Southeast 169 194 13,000  Level Salt Lake Center
08:15PM 43.9206 -108.0575 130° Southeast 169 194 13,000  Level Salt Lake Center
08:16PM 43.8897 -108.0078 131° Southeast 170 196 13,000  Level Salt Lake Center
08:17PM 43.8597 -107.9583 130° Southeast 169 194 13,000  Level Salt Lake Center
08:18PM 43.8300 -107.9103 131° Southeast 168 193 13,000  Level Salt Lake Center
08:19PM 43.7992 -107.8625 132° Southeast 167 192 13,000  Level Salt Lake Center
08:20PM 43.7625 -107.8025 130° Southeast 168 193 13,000  Level Salt Lake Center
08:21PM 43.7317 -107.7525 130° Southeast 170 196 13,100  Climbing Salt Lake Center
08:22PM 43.7008 -107.7058 132° Southeast 169 194 13,100  Level Salt Lake Center
08:23PM 43.6706 -107.6594 132° Southeast 166 191 13,100 -60 Level Salt Lake Center
08:24PM 43.6408 -107.6106 130° Southeast 166 191 13,000 -60 Descending Salt Lake Center
08:25PM 43.6100 -107.5639 132° Southeast 165 190 13,000  Level Salt Lake Center
08:26PM 43.5736 -107.5047 130° Southeast 167 192 13,000  Level Salt Lake Center
08:27PM 43.5433 -107.4558 131° Southeast 167 192 13,000  Level Salt Lake Center
08:28PM 43.5131 -107.4078 131° Southeast 167 192 13,000  Level Salt Lake Center
08:29PM 43.4825 -107.3586 131° Southeast 168 193 13,000  Level Salt Lake Center
08:30PM 43.4514 -107.3108 132° Southeast 169 194 13,100  Climbing Salt Lake Center
08:31PM 43.4189 -107.2611 132° Southeast 173 199 13,100  Level Salt Lake Center
08:32PM 43.3869 -107.2125 132° Southeast 172 198 13,100  Level Salt Lake Center
08:33PM 43.3556 -107.1622 131° Southeast 173 199 13,200  Climbing Salt Lake Center
08:34PM 43.3167 -107.1006 131° Southeast 177 204 13,100 -60 Descending Salt Lake Center
08:35PM 43.2844 -107.0500 131° Southeast 177 204 13,100 -240 Level Salt Lake Center
08:36PM 43.2506 -106.9992 132° Southeast 180 207 12,700 -600 Descending Salt Lake Center
08:37PM 43.2150 -106.9450 132° Southeast 188 216 11,900 -840 Descending Salt Lake Center
08:38PM 43.1744 -106.8817 131° Southeast 191 220 11,000 -840 Descending Salt Lake Center
08:39PM 43.1406 -106.8300 132° Southeast 191 220 10,300 -720 Descending Salt Lake Center
08:40PM 43.1094 -106.7772 129° Southeast 188 216 9,600 -960 Descending Salt Lake Center
08:41PM 43.0911 -106.7375 122° Southeast 189 217 8,900 -900 Descending Denver Center
08:42PM 43.0617 -106.6789 124° Southeast 193 222 8,100 -720 Descending Denver Center
08:43PM 43.0189 -106.6053 128° Southeast 193 222 7,400 -540 Descending Denver Center
08:44PM 42.9892 -106.5517 127° Southeast 190 219 7,000 -300 Descending Denver Center
08:45PM 42.9528 -106.4894 129° Southeast 188 216 6,800 -240 Descending Denver Center